createdAt,value
2023-02-11T00:14:07.295Z,6.22
2023-02-11T00:34:07.287Z,6.23
2023-02-11T00:54:07.291Z,6.3
2023-02-11T01:34:07.303Z,6.55
2023-02-11T01:54:07.302Z,6.55
2023-02-11T02:14:07.310Z,6.48
2023-02-11T02:34:07.312Z,6.55
2023-02-11T02:54:07.307Z,6.51
2023-02-11T03:14:07.308Z,6.4
2023-02-11T03:34:07.322Z,6.43
2023-02-11T03:54:07.321Z,6.37
2023-02-11T04:14:07.329Z,6.2
2023-02-11T04:34:07.320Z,6
2023-02-11T04:54:07.324Z,5.84
2023-02-11T05:34:07.360Z,5.67
2023-02-11T05:54:07.338Z,5.66
2023-02-11T06:14:07.347Z,5.66
2023-02-11T06:34:07.352Z,5.75
2023-02-11T06:54:07.353Z,5.77
2023-02-11T07:14:07.357Z,5.84
2023-02-11T07:34:07.350Z,5.96
2023-02-11T07:54:07.362Z,6.05
2023-02-11T08:14:07.426Z,6.13
2023-02-11T08:34:07.358Z,6.23
2023-02-11T08:54:07.352Z,6.35
2023-02-11T09:14:07.384Z,6.49
2023-02-11T09:34:07.364Z,6.73
2023-02-11T09:54:07.380Z,6.92
2023-02-11T10:14:07.381Z,7.08
2023-02-11T10:34:07.392Z,7.25
2023-02-11T10:54:07.385Z,7.34
2023-02-11T11:14:07.382Z,7.52
2023-02-11T11:34:07.377Z,7.6
2023-02-11T11:54:07.404Z,7.76
2023-02-11T12:14:07.387Z,7.85
2023-02-11T12:34:07.381Z,7.97
2023-02-11T12:54:07.393Z,8.01
2023-02-11T13:34:07.380Z,8.14
2023-02-11T13:54:07.377Z,8.39
2023-02-11T14:14:07.389Z,8.77
2023-02-11T14:34:07.381Z,8.96
2023-02-11T14:54:07.392Z,9
2023-02-11T15:14:07.371Z,9.04
2023-02-11T15:34:07.386Z,8.97
2023-02-11T15:54:07.391Z,8.95
2023-02-11T16:14:07.377Z,8.89
2023-02-11T16:34:07.404Z,8.75
2023-02-11T16:54:07.384Z,8.77
2023-02-11T17:14:07.369Z,8.72
2023-02-11T17:34:07.376Z,8.55
2023-02-11T17:54:07.378Z,8.36
2023-02-11T18:14:07.373Z,8.35
2023-02-11T18:34:07.608Z,8.29
2023-02-11T18:54:07.397Z,8.27
2023-02-11T19:14:07.374Z,8.25
2023-02-11T19:34:07.405Z,8.23
2023-02-11T20:14:07.375Z,8.22
2023-02-11T20:34:07.382Z,8.16
2023-02-11T20:54:07.392Z,8.1
2023-02-11T21:14:07.386Z,8.12
2023-02-11T21:34:07.430Z,8.09
2023-02-11T21:54:07.381Z,8.06
2023-02-11T22:14:07.396Z,8.05
2023-02-11T22:34:07.380Z,8.05
2023-02-11T22:54:07.387Z,8
2023-02-11T23:14:07.368Z,7.95
2023-02-11T23:34:07.383Z,7.97
2023-02-11T23:54:07.395Z,7.93
